createdAt,value
2023-04-16T00:00:07.914Z,19.27
2023-04-16T00:02:41.761Z,19.13
2023-04-16T00:05:10.480Z,19.70
2023-04-16T00:07:39.838Z,19.97
2023-04-16T00:10:09.058Z,19.67
2023-04-16T00:12:37.533Z,19.50
2023-04-16T00:15:06.103Z,20.10
2023-04-16T00:17:34.160Z,21.27
2023-04-16T00:20:02.353Z,18.87
2023-04-16T00:22:30.379Z,19.53
2023-04-16T00:24:59.681Z,18.50
2023-04-16T00:27:28.173Z,20.03
2023-04-16T00:29:56.120Z,19.70
2023-04-16T00:32:24.592Z,19.40
2023-04-16T00:34:52.673Z,21.57
2023-04-16T00:37:20.782Z,21.03
2023-04-16T00:39:48.828Z,20.03
2023-04-16T00:42:18.309Z,20.57
2023-04-16T00:44:46.308Z,20.00
2023-04-16T00:47:14.362Z,20.07
2023-04-16T00:49:42.462Z,19.43
2023-04-16T00:52:12.717Z,19.87
2023-04-16T00:54:41.984Z,18.90
2023-04-16T00:57:11.106Z,17.57
2023-04-16T00:59:40.480Z,18.27
2023-04-16T01:02:08.615Z,18.47
2023-04-16T01:04:36.885Z,17.50
2023-04-16T01:07:04.938Z,17.93
2023-04-16T01:09:33.020Z,18.73
2023-04-16T01:12:02.114Z,17.93
2023-04-16T01:14:31.775Z,17.87
2023-04-16T01:17:01.631Z,17.93
2023-04-16T01:19:31.193Z,16.67
2023-04-16T01:22:00.620Z,14.73
2023-04-16T01:24:28.759Z,15.87
2023-04-16T01:26:58.988Z,15.73
2023-04-16T01:29:27.167Z,15.25
2023-04-16T01:31:57.862Z,16.88
2023-04-16T01:34:37.633Z,16.00
2023-04-16T01:37:07.018Z,16.13
2023-04-16T01:39:34.977Z,16.27
2023-04-16T01:42:03.124Z,16.70
2023-04-16T01:44:31.839Z,16.33
2023-04-16T01:46:59.809Z,16.07
2023-04-16T01:49:28.016Z,15.80
2023-04-16T01:51:55.986Z,15.70
2023-04-16T01:54:25.651Z,16.57
2023-04-16T01:56:53.622Z,15.63
2023-04-16T01:59:25.108Z,16.97
2023-04-16T02:01:53.193Z,15.47
2023-04-16T02:04:21.424Z,15.90
2023-04-16T02:06:49.424Z,15.60
2023-04-16T02:09:17.408Z,16.23
2023-04-16T02:11:46.937Z,16.00
2023-04-16T02:14:15.319Z,15.43
2023-04-16T02:16:43.886Z,15.47
2023-04-16T02:19:28.530Z,14.87
2023-04-16T02:21:56.981Z,14.47
2023-04-16T02:24:24.930Z,14.97
2023-04-16T02:26:55.134Z,15.30
2023-04-16T02:29:23.132Z,15.70
2023-04-16T02:32:00.655Z,14.60
2023-04-16T02:34:29.966Z,15.67
2023-04-16T02:36:59.393Z,15.73
2023-04-16T02:39:27.742Z,16.80
2023-04-16T02:41:57.998Z,15.57
2023-04-16T02:44:26.207Z,15.97
2023-04-16T02:46:54.178Z,17.67
2023-04-16T02:49:22.412Z,16.00
2023-04-16T02:51:50.521Z,14.80
2023-04-16T02:54:18.579Z,15.87
2023-04-16T02:56:46.621Z,15.23
2023-04-16T02:59:15.958Z,15.13
2023-04-16T03:01:44.093Z,16.13
2023-04-16T03:04:12.228Z,15.53
2023-04-16T03:06:40.418Z,14.83
2023-04-16T03:09:09.411Z,15.23
2023-04-16T03:11:37.491Z,15.53
2023-04-16T03:14:06.281Z,14.30
2023-04-16T03:16:35.657Z,15.20
2023-04-16T03:19:03.672Z,13.30
2023-04-16T03:21:31.792Z,15.57
2023-04-16T03:24:00.144Z,14.23
2023-04-16T03:26:28.194Z,13.90
2023-04-16T03:28:56.904Z,13.77
2023-04-16T03:32:39.795Z,13.00
2023-04-16T03:35:10.751Z,13.83
2023-04-16T03:37:38.757Z,14.15
2023-04-16T03:40:08.183Z,13.27
2023-04-16T03:42:36.244Z,12.33
2023-04-16T03:45:04.801Z,14.07
2023-04-16T03:47:33.514Z,14.67
2023-04-16T03:50:04.320Z,13.55
2023-04-16T03:52:33.737Z,13.30
2023-04-16T03:55:03.825Z,11.70
2023-04-16T03:57:33.058Z,12.03
2023-04-16T04:00:08.781Z,14.27
2023-04-16T04:02:43.129Z,11.60
2023-04-16T04:05:18.539Z,11.63
2023-04-16T04:07:49.303Z,12.70
2023-04-16T04:10:17.458Z,12.57
2023-04-16T04:12:45.594Z,13.07
2023-04-16T04:15:13.957Z,12.77
2023-04-16T04:17:43.677Z,14.27
2023-04-16T04:20:13.216Z,12.73
2023-04-16T04:22:43.235Z,13.23
2023-04-16T04:25:14.687Z,13.63
2023-04-16T04:27:42.757Z,13.73
2023-04-16T04:30:11.940Z,13.63
2023-04-16T04:32:41.102Z,13.65
2023-04-16T04:35:10.710Z,12.57
2023-04-16T04:37:38.701Z,12.77
2023-04-16T04:40:21.103Z,12.18
2023-04-16T04:42:49.177Z,12.33
2023-04-16T04:45:17.257Z,13.03
2023-04-16T04:47:45.408Z,13.13
2023-04-16T04:50:13.421Z,13.33
2023-04-16T04:52:42.248Z,12.60
2023-04-16T04:55:10.596Z,12.57
2023-04-16T04:57:40.165Z,13.60
2023-04-16T05:00:09.886Z,11.73
2023-04-16T05:02:44.446Z,12.93
2023-04-16T05:05:12.534Z,12.53
2023-04-16T05:07:40.542Z,12.90
2023-04-16T05:10:10.157Z,13.50
2023-04-16T05:13:04.621Z,11.83
2023-04-16T05:15:32.559Z,12.37
2023-04-16T05:18:00.587Z,12.93
2023-04-16T05:20:28.644Z,12.83
2023-04-16T05:22:56.704Z,12.50
2023-04-16T05:25:24.975Z,13.53
2023-04-16T05:27:52.955Z,13.37
2023-04-16T05:30:22.278Z,14.37
2023-04-16T05:32:50.400Z,14.03
2023-04-16T05:35:18.452Z,12.93
2023-04-16T05:37:46.498Z,14.03
2023-04-16T05:40:15.273Z,13.87
2023-04-16T05:42:43.208Z,12.87
2023-04-16T05:45:11.886Z,12.60
2023-04-16T05:47:41.246Z,13.47
2023-04-16T05:50:09.832Z,14.00
2023-04-16T05:52:37.785Z,13.50
2023-04-16T05:55:06.231Z,14.63
2023-04-16T05:57:34.437Z,14.07
2023-04-16T06:00:02.425Z,14.03
2023-04-16T06:02:41.648Z,14.33
2023-04-16T06:05:10.146Z,14.00
2023-04-16T06:07:38.201Z,14.67
2023-04-16T06:10:07.050Z,15.30
2023-04-16T06:12:35.137Z,14.80
2023-04-16T06:15:03.720Z,15.20
2023-04-16T06:17:31.707Z,15.37
2023-04-16T06:20:01.055Z,15.43
2023-04-16T06:22:29.456Z,16.30
2023-04-16T06:24:57.418Z,16.73
2023-04-16T06:27:25.911Z,15.93
2023-04-16T06:29:53.865Z,16.53
2023-04-16T06:32:21.909Z,16.80
2023-04-16T06:34:49.911Z,17.87
2023-04-16T06:37:19.270Z,16.13
2023-04-16T06:39:47.223Z,15.30
2023-04-16T06:42:15.489Z,15.37
2023-04-16T06:44:44.316Z,15.73
2023-04-16T06:47:12.305Z,15.53
2023-04-16T06:49:40.518Z,16.33
2023-04-16T06:52:08.566Z,14.70
2023-04-16T06:54:37.987Z,15.57
2023-04-16T06:57:06.010Z,15.77
2023-04-16T06:59:33.959Z,15.23
2023-04-16T07:02:02.133Z,15.40
2023-04-16T07:04:30.269Z,15.90
2023-04-16T07:06:58.237Z,15.07
2023-04-16T07:09:26.831Z,14.20
2023-04-16T07:11:56.315Z,14.93
2023-04-16T07:14:24.314Z,14.90
2023-04-16T07:16:52.312Z,14.33
2023-04-16T07:19:20.406Z,13.93
2023-04-16T07:21:48.413Z,14.37
2023-04-16T07:24:16.368Z,14.13
2023-04-16T07:26:44.299Z,14.53
2023-04-16T07:29:13.803Z,14.10
2023-04-16T07:31:41.907Z,14.50
2023-04-16T07:34:09.849Z,15.18
2023-04-16T07:36:37.759Z,13.57
2023-04-16T07:39:06.271Z,13.68
2023-04-16T07:41:34.482Z,14.27
2023-04-16T07:44:02.620Z,14.77
2023-04-16T07:46:45.699Z,12.60
2023-04-16T07:49:15.464Z,12.52
2023-04-16T07:51:43.549Z,13.13
2023-04-16T07:54:11.811Z,12.15
2023-04-16T07:56:39.928Z,12.60
2023-04-16T07:59:19.150Z,11.88
2023-04-16T08:01:54.213Z,11.05
2023-04-16T08:06:54.439Z,10.18
2023-04-16T08:09:27.879Z,10.50
2023-04-16T08:11:55.962Z,9.60
2023-04-16T08:14:23.964Z,10.43
2023-04-16T08:16:53.471Z,10.65
2023-04-16T08:19:21.665Z,9.80
2023-04-16T08:21:49.668Z,9.98
2023-04-16T08:24:17.755Z,11.38
2023-04-16T08:26:45.875Z,11.10
2023-04-16T08:29:13.992Z,10.90
2023-04-16T08:31:42.384Z,11.57
2023-04-16T08:34:12.479Z,12.43
2023-04-16T08:36:41.433Z,12.13
2023-04-16T08:39:09.999Z,11.88
2023-04-16T08:41:42.201Z,11.90
2023-04-16T08:44:13.040Z,10.98
2023-04-16T08:46:42.503Z,11.10
2023-04-16T08:49:18.903Z,9.35
2023-04-16T08:51:52.348Z,9.93
2023-04-16T08:54:32.181Z,8.85
2023-04-16T08:57:01.404Z,8.25
2023-04-16T08:59:30.541Z,6.85
2023-04-16T09:02:00.222Z,5.78
2023-04-16T09:04:30.282Z,6.10
2023-04-16T09:06:59.927Z,5.73
2023-04-16T09:09:28.259Z,6.60
2023-04-16T09:11:57.186Z,5.45
2023-04-16T09:14:25.484Z,5.15
2023-04-16T09:16:54.812Z,6.03
2023-04-16T09:19:22.771Z,6.20
2023-04-16T09:21:52.120Z,6.78
2023-04-16T09:24:20.350Z,6.30
2023-04-16T09:26:49.818Z,6.18
2023-04-16T09:29:34.627Z,5.45
2023-04-16T09:32:04.240Z,5.70
2023-04-16T09:34:33.860Z,5.47
2023-04-16T09:37:19.163Z,5.20
2023-04-16T09:39:54.696Z,4.82
2023-04-16T09:42:24.965Z,5.53
2023-04-16T09:44:53.988Z,5.38
2023-04-16T09:47:23.344Z,5.35
2023-04-16T09:49:51.425Z,4.88
2023-04-16T09:52:24.045Z,4.80
2023-04-16T09:54:54.088Z,5.60
2023-04-16T09:57:23.099Z,3.92
2023-04-16T09:59:54.360Z,3.50
2023-04-16T10:02:23.782Z,2.75
2023-04-16T10:04:53.614Z,3.30
2023-04-16T10:07:23.196Z,3.30
2023-04-16T10:09:52.598Z,2.92
2023-04-16T10:12:21.584Z,2.97
2023-04-16T10:14:50.419Z,3.17
2023-04-16T10:17:18.752Z,3.60
2023-04-16T10:19:47.147Z,3.78
2023-04-16T10:22:15.333Z,2.38
2023-04-16T10:24:45.105Z,2.40
2023-04-16T10:27:13.449Z,2.42
2023-04-16T10:29:41.858Z,2.50
2023-04-16T10:32:10.336Z,2.35
2023-04-16T10:34:38.629Z,1.98
2023-04-16T10:37:06.678Z,1.80
2023-04-16T10:39:38.398Z,1.58
2023-04-16T10:42:12.205Z,1.77
2023-04-16T10:44:44.382Z,2.10
2023-04-16T10:47:15.169Z,3.22
2023-04-16T10:49:43.740Z,2.08
2023-04-16T10:52:13.513Z,2.08
2023-04-16T10:54:42.183Z,2.03
2023-04-16T10:57:18.710Z,2.10
2023-04-16T10:59:47.246Z,2.08
2023-04-16T11:02:17.573Z,2.42
2023-04-16T11:04:47.261Z,2.47
2023-04-16T11:07:20.898Z,2.92
2023-04-16T11:10:00.455Z,3.08
2023-04-16T11:12:37.326Z,2.65
2023-04-16T11:15:07.149Z,6.80
2023-04-16T11:17:38.890Z,2.63
2023-04-16T11:20:17.398Z,2.53
2023-04-16T11:22:48.725Z,2.53
2023-04-16T11:25:21.853Z,1.98
2023-04-16T11:27:51.967Z,2.30
2023-04-16T11:30:29.518Z,2.25
2023-04-16T11:32:57.674Z,2.65
2023-04-16T11:35:26.239Z,2.75
2023-04-16T11:37:57.487Z,2.42
2023-04-16T11:40:26.167Z,3.08
2023-04-16T11:42:55.571Z,2.63
2023-04-16T11:45:23.548Z,2.80
2023-04-16T11:47:56.902Z,2.80
2023-04-16T11:50:27.364Z,2.45
2023-04-16T11:52:56.891Z,2.65
2023-04-16T11:55:25.924Z,1.90
2023-04-16T11:57:55.912Z,2.40
2023-04-16T12:00:24.411Z,2.20
2023-04-16T12:02:54.545Z,3.17
2023-04-16T12:05:31.012Z,3.28
2023-04-16T12:08:00.484Z,2.90
2023-04-16T12:10:29.177Z,2.38
2023-04-16T12:13:11.498Z,2.20
2023-04-16T12:15:47.198Z,3.85
2023-04-16T12:18:16.145Z,2.28
2023-04-16T12:20:45.329Z,2.47
2023-04-16T12:28:06.517Z,2.15
2023-04-16T12:30:34.659Z,2.17
2023-04-16T12:33:16.559Z,2.58
2023-04-16T12:35:45.071Z,2.33
2023-04-16T12:38:15.094Z,2.47
2023-04-16T12:40:43.327Z,2.47
2023-04-16T12:43:12.784Z,2.50
2023-04-16T12:45:41.443Z,2.28
2023-04-16T12:48:09.528Z,2.42
2023-04-16T12:50:40.676Z,3.20
2023-04-16T12:53:08.725Z,2.45
2023-04-16T12:55:36.716Z,2.65
2023-04-16T12:58:04.704Z,2.95
2023-04-16T13:00:33.998Z,2.40
2023-04-16T13:03:02.105Z,2.15
2023-04-16T13:05:30.494Z,2.40
2023-04-16T13:07:58.529Z,3.33
2023-04-16T13:10:27.843Z,2.25
2023-04-16T13:12:56.050Z,2.63
2023-04-16T13:15:24.129Z,2.30
2023-04-16T13:17:53.562Z,4.57
2023-04-16T13:20:23.920Z,3.35
2023-04-16T13:22:52.589Z,2.17
2023-04-16T13:25:20.576Z,2.10
2023-04-16T13:27:48.541Z,1.90
2023-04-16T13:30:17.140Z,4.75
2023-04-16T13:32:45.526Z,2.13
2023-04-16T13:35:40.290Z,1.70
2023-04-16T13:38:08.256Z,1.63
2023-04-16T13:41:02.185Z,3.08
2023-04-16T13:43:55.268Z,2.40
2023-04-16T13:46:23.549Z,6.97
2023-04-16T13:48:51.593Z,2.10
2023-04-16T13:51:21.736Z,2.50
2023-04-16T13:53:49.949Z,1.83
2023-04-16T13:56:18.132Z,1.55
2023-04-16T13:58:46.342Z,2.67
2023-04-16T14:01:14.380Z,2.00
2023-04-16T14:03:42.562Z,1.85
2023-04-16T14:06:11.065Z,1.75
2023-04-16T14:09:06.134Z,1.80
2023-04-16T14:11:34.230Z,2.55
2023-04-16T14:14:02.323Z,3.55
2023-04-16T14:16:30.473Z,4.55
2023-04-16T14:18:58.555Z,2.00
2023-04-16T14:21:27.081Z,1.60
2023-04-16T14:23:55.154Z,2.00
2023-04-16T14:26:24.551Z,2.22
2023-04-16T14:28:52.777Z,1.92
2023-04-16T14:31:20.933Z,1.60
2023-04-16T14:33:52.657Z,2.70
2023-04-16T14:36:20.723Z,2.53
2023-04-16T14:38:49.320Z,1.90
2023-04-16T14:41:18.632Z,1.52
2023-04-16T14:43:48.112Z,1.65
2023-04-16T14:46:17.738Z,2.42
2023-04-16T14:48:46.269Z,2.58
2023-04-16T14:51:14.322Z,1.83
2023-04-16T14:53:42.403Z,1.80
2023-04-16T14:56:12.936Z,2.28
2023-04-16T14:58:42.998Z,2.50
2023-04-16T15:01:14.917Z,2.20
2023-04-16T15:03:44.209Z,2.03
2023-04-16T15:06:12.355Z,2.33
2023-04-16T15:08:40.621Z,1.80
2023-04-16T15:11:08.714Z,2.47
2023-04-16T15:13:36.682Z,2.20
2023-04-16T15:16:05.407Z,2.10
2023-04-16T15:18:34.837Z,2.15
2023-04-16T15:21:02.933Z,2.35
2023-04-16T15:23:33.822Z,1.52
2023-04-16T15:28:29.984Z,1.80
2023-04-16T15:30:58.686Z,1.80
2023-04-16T15:33:27.427Z,1.63
2023-04-16T15:35:56.933Z,1.67
2023-04-16T15:38:25.564Z,1.85
2023-04-16T15:40:53.657Z,1.30
2023-04-16T15:43:21.639Z,2.25
2023-04-16T15:45:49.789Z,1.33
2023-04-16T15:48:17.816Z,1.60
2023-04-16T15:50:45.846Z,5.38
2023-04-16T15:53:15.252Z,1.70
2023-04-16T15:55:44.106Z,2.60
2023-04-16T15:58:12.923Z,4.00
2023-04-16T16:00:41.446Z,1.38
2023-04-16T16:03:13.005Z,22.35
2023-04-16T16:05:41.474Z,2.58
2023-04-16T16:08:09.767Z,1.60
2023-04-16T16:10:40.958Z,2.00
2023-04-16T16:15:41.854Z,1.45
2023-04-16T16:18:09.994Z,1.40
2023-04-16T16:20:38.896Z,2.05
2023-04-16T16:23:07.204Z,2.45
2023-04-16T16:25:37.068Z,3.90
2023-04-16T16:28:06.852Z,1.73
2023-04-16T16:30:34.928Z,1.83
2023-04-16T16:33:03.077Z,1.63
2023-04-16T16:35:31.140Z,1.88
2023-04-16T16:37:59.482Z,1.75
2023-04-16T16:40:27.684Z,1.77
2023-04-16T16:42:55.772Z,1.77
2023-04-16T16:46:37.966Z,1.70
2023-04-16T16:49:09.446Z,2.00
2023-04-16T16:51:37.741Z,1.45
2023-04-16T16:54:05.788Z,2.20
2023-04-16T16:56:33.822Z,2.47
2023-04-16T16:59:02.708Z,2.00
2023-04-16T17:01:31.434Z,1.35
2023-04-16T17:03:59.720Z,1.30
2023-04-16T17:06:29.276Z,1.20
2023-04-16T17:08:57.384Z,1.58
2023-04-16T17:11:27.036Z,2.35
2023-04-16T17:13:55.398Z,1.63
2023-04-16T17:16:23.965Z,1.85
2023-04-16T17:18:52.128Z,2.60
2023-04-16T17:21:20.106Z,1.60
2023-04-16T17:23:49.735Z,2.22
2023-04-16T17:26:17.814Z,1.63
2023-04-16T17:28:45.881Z,1.92
2023-04-16T17:31:14.896Z,1.90
2023-04-16T17:33:43.444Z,1.58
2023-04-16T17:36:11.603Z,3.00
2023-04-16T17:38:40.074Z,2.17
2023-04-16T17:41:09.435Z,1.55
2023-04-16T17:43:37.449Z,2.00
2023-04-16T17:46:06.375Z,2.33
2023-04-16T17:48:34.349Z,1.70
2023-04-16T17:51:10.136Z,1.55
2023-04-16T17:53:38.321Z,1.65
2023-04-16T17:56:06.610Z,2.53
2023-04-16T17:58:36.149Z,2.40
2023-04-16T18:01:05.185Z,1.63
2023-04-16T18:03:33.981Z,1.50
2023-04-16T18:06:02.000Z,1.70
2023-04-16T18:08:29.982Z,1.50
2023-04-16T18:10:58.042Z,2.25
2023-04-16T18:13:26.125Z,2.20
2023-04-16T18:15:55.665Z,2.80
2023-04-16T18:19:14.459Z,1.70
2023-04-16T18:21:42.543Z,2.42
2023-04-16T18:24:11.101Z,1.70
2023-04-16T18:26:40.948Z,2.00
2023-04-16T18:29:09.390Z,2.13
2023-04-16T18:31:39.027Z,1.50
2023-04-16T18:34:07.206Z,1.35
2023-04-16T18:36:35.432Z,1.98
2023-04-16T18:39:03.724Z,1.58
2023-04-16T18:41:31.760Z,1.75
2023-04-16T18:43:59.815Z,2.88
2023-04-16T18:46:27.908Z,2.05
2023-04-16T18:48:59.006Z,2.17
2023-04-16T18:51:27.395Z,2.70
2023-04-16T18:53:55.500Z,2.38
2023-04-16T18:56:23.716Z,1.95
2023-04-16T19:03:36.662Z,2.30
2023-04-16T19:06:06.442Z,2.60
2023-04-16T19:08:34.598Z,3.03
2023-04-16T19:11:02.533Z,3.90
2023-04-16T19:13:32.319Z,2.70
2023-04-16T19:16:01.556Z,2.10
2023-04-16T19:18:29.638Z,2.85
2023-04-16T19:21:00.255Z,2.40
2023-04-16T19:23:29.924Z,2.53
2023-04-16T19:25:58.130Z,2.00
2023-04-16T19:28:26.555Z,2.20
2023-04-16T19:35:26.100Z,2.42
2023-04-16T19:37:56.217Z,2.28
2023-04-16T19:40:25.987Z,2.95
2023-04-16T19:42:54.900Z,3.10
2023-04-16T19:45:26.030Z,2.78
2023-04-16T19:47:54.453Z,3.10
2023-04-16T19:50:23.406Z,2.53
2023-04-16T19:52:51.635Z,2.55
2023-04-16T19:55:20.006Z,3.78
2023-04-16T19:57:50.192Z,3.15
2023-04-16T20:00:18.938Z,2.40
2023-04-16T20:02:47.041Z,2.17
2023-04-16T20:05:15.296Z,3.40
2023-04-16T20:07:43.298Z,2.35
2023-04-16T20:10:11.855Z,2.60
2023-04-16T20:12:39.824Z,2.38
2023-04-16T20:15:10.501Z,1.70
2023-04-16T20:17:38.600Z,2.40
2023-04-16T20:20:10.222Z,3.65
2023-04-16T20:22:38.365Z,3.08
2023-04-16T20:25:07.597Z,2.50
2023-04-16T20:27:35.904Z,2.25
2023-04-16T20:30:06.076Z,2.33
2023-04-16T20:32:35.565Z,2.45
2023-04-16T20:35:05.212Z,2.28
2023-04-16T20:37:38.039Z,3.45
2023-04-16T20:40:08.282Z,2.72
2023-04-16T20:42:36.460Z,3.20
2023-04-16T20:45:04.940Z,2.80
2023-04-16T20:47:34.770Z,2.03
2023-04-16T20:50:04.562Z,2.77
2023-04-16T20:52:32.656Z,2.75
2023-04-16T20:55:00.737Z,2.65
2023-04-16T20:57:29.761Z,2.45
2023-04-16T20:59:58.465Z,2.10
2023-04-16T21:02:34.717Z,2.55
2023-04-16T21:05:06.351Z,2.35
2023-04-16T21:07:36.383Z,2.33
2023-04-16T21:10:05.120Z,2.60
2023-04-16T21:12:33.127Z,2.83
2023-04-16T21:15:01.351Z,2.63
2023-04-16T21:17:29.470Z,2.47
2023-04-16T21:19:57.434Z,2.42
2023-04-16T21:22:26.761Z,2.85
2023-04-16T21:24:54.663Z,3.03
2023-04-16T21:27:22.705Z,2.25
2023-04-16T21:29:50.935Z,2.45
2023-04-16T21:32:19.020Z,2.28
2023-04-16T21:34:47.035Z,2.13
2023-04-16T21:37:14.994Z,2.78
2023-04-16T21:39:44.453Z,2.58
2023-04-16T21:42:12.651Z,2.78
2023-04-16T21:44:40.704Z,2.55
2023-04-16T21:47:08.679Z,2.58
2023-04-16T21:49:36.635Z,2.55
2023-04-16T21:52:04.778Z,2.30
2023-04-16T21:54:32.737Z,2.38
2023-04-16T21:57:02.012Z,2.80
2023-04-16T21:59:30.138Z,2.30
2023-04-16T22:01:58.241Z,2.83
2023-04-16T22:04:36.986Z,2.40
2023-04-16T22:14:27.784Z,4.32
2023-04-16T22:16:56.469Z,2.50
2023-04-16T22:19:24.571Z,2.55
2023-04-16T22:21:52.601Z,2.67
2023-04-16T22:24:20.714Z,2.40
2023-04-16T22:26:48.691Z,2.83
2023-04-16T22:29:16.746Z,2.60
2023-04-16T22:31:47.711Z,3.08
2023-04-16T22:34:15.734Z,2.50
2023-04-16T22:36:43.714Z,2.17
2023-04-16T22:39:11.963Z,2.42
2023-04-16T22:41:40.469Z,2.80
2023-04-16T22:44:08.541Z,2.30
2023-04-16T22:46:37.079Z,2.38
2023-04-16T22:49:06.515Z,2.47
2023-04-16T22:51:34.437Z,3.03
2023-04-16T22:54:02.404Z,2.00
2023-04-16T22:56:31.112Z,2.47
2023-04-16T22:58:59.058Z,2.60
2023-04-16T23:01:52.499Z,2.03
2023-04-16T23:04:22.155Z,2.60
2023-04-16T23:06:50.441Z,2.50
2023-04-16T23:09:18.709Z,2.42
2023-04-16T23:11:46.661Z,2.83
2023-04-16T23:14:16.824Z,2.50
2023-04-16T23:16:44.968Z,2.78
2023-04-16T23:19:15.125Z,2.45
2023-04-16T23:21:44.662Z,2.47
2023-04-16T23:24:12.729Z,2.20
2023-04-16T23:26:40.855Z,2.50
2023-04-16T23:29:08.973Z,2.58
2023-04-16T23:31:37.143Z,2.75
2023-04-16T23:34:05.187Z,1.98
2023-04-16T23:36:33.088Z,2.80
2023-04-16T23:39:02.416Z,2.38
2023-04-16T23:41:30.344Z,2.38
2023-04-16T23:43:59.071Z,2.33
2023-04-16T23:46:27.219Z,4.22
2023-04-16T23:48:55.857Z,2.63
2023-04-16T23:51:23.860Z,2.60
2023-04-16T23:53:51.840Z,2.58
2023-04-16T23:56:21.202Z,2.90
2023-04-16T23:58:49.176Z,3.10
